Flight Track Log - Related Links

Times and Time Zones

All times are in EDT time to prevent confusion due to time zone crossing. See the AWI3833 flight status page for this flight to view local times or setup timezone preferences in your user account.

Time Position Orientation Groundspeed Altitude Reporting Facility
EDT Latitude Longitude Course Direction KTS MPH feet Rate Location/Type
Fri 04:48:36 PM 43.0606 -76.0408 206° Southwest 216 249 4,600  Level Boston Center
Fri 04:49:00 PM 42.8820 -76.3643 223° Southwest  Level FlightAware Approximate
Fri 04:49:31 PM 43.0172 -76.0922 221° Southwest 228 262 6,100  Level Boston Center
Fri 04:50:00 PM 42.8092 -76.4553 223° Southwest  Level FlightAware Approximate
Fri 04:50:31 PM 42.9547 -76.1539 216° Southwest 284 327 8,100  Level Boston Center
Fri 04:51:00 PM 42.7251 -76.5250 210° Southwest  Level FlightAware Approximate
Fri 04:52:00 PM 42.6499 -76.6000 200° South  Level FlightAware Approximate
Fri 04:52:50 PM 42.8103 -76.3033 217° Southwest 333 383 11,000  Level New York Center
Fri 04:53:00 PM 42.5610 -76.6557 216° Southwest  Level FlightAware Approximate
Fri 04:53:50 PM 42.7361 -76.3758 216° Southwest 338 389 11,000  Level New York Center
Fri 04:54:51 PM 42.6706 -76.4436 217° Southwest 320 368 11,500 504 Climbing New York Center
Fri 04:55:49 PM 42.6006 -76.5136 216° Southwest 315 362 12,000 254 Climbing New York Center
Fri 04:56:49 PM 42.5350 -76.5808 217° Southwest 310 357 12,000  Level New York Center
Fri 04:57:48 PM 42.4714 -76.6456 217° Southwest 305 351 12,000  Level New York Center
Fri 04:58:50 PM 42.4056 -76.7125 217° Southwest 305 351 12,000  Level New York Center
Fri 04:59:51 PM 42.3378 -76.7794 216° Southwest 305 351 12,000  Level New York Center
Fri 05:00:49 PM 42.2719 -76.8461 217° Southwest 305 351 12,000  Level New York Center
Fri 05:02:00 PM 42.1915 -76.9190 214° Southwest  Level FlightAware Approximate
Fri 05:02:51 PM 42.1400 -76.9794 131° Southeast 305 351 12,000  Level New York Center
Fri 05:03:51 PM 42.0633 -76.9753 178° South 276 318 12,000  Level New York Center
Fri 05:04:49 PM 42.0019 -76.8744 129° Southeast 257 296 12,000  Level New York Center
Fri 05:05:50 PM 41.9461 -76.7828 129° Southeast 285 328 12,000  Level New York Center
Fri 05:06:51 PM 41.8864 -76.6883 130° Southeast 296 341 12,000  Level New York Center
Fri 05:07:51 PM 41.8286 -76.5914 129° Southeast 317 365 12,000  Level New York Center
Fri 05:08:49 PM 41.7689 -76.4942 129° Southeast 332 382 12,000  Level New York Center
Fri 05:09:00 PM 41.8035 -76.5554 131° Southeast  Level FlightAware Approximate
Fri 05:09:49 PM 41.7089 -76.3975 130° Southeast 338 389 12,000  Level New York Center
Fri 05:10:51 PM 41.6508 -76.3036 130° Southeast 333 383 12,000  Level New York Center
Fri 05:11:49 PM 41.5747 -76.2392 148° Southeast 333 383 12,000  Level New York Center
Fri 05:12:49 PM 41.5061 -76.1919 153° Southeast 319 367 12,000  Level New York Center
Fri 05:13:50 PM 41.4294 -76.1361 151° Southeast 319 367 12,000  Level New York Center
Fri 05:14:48 PM 41.3428 -76.0711 151° Southeast 319 367 12,000 -50 Level New York Center
Fri 05:15:49 PM 41.2639 -76.0153 152° Southeast 319 367 11,900 -492 Descending New York Center
Fri 05:16:50 PM 41.1933 -75.9628 151° Southeast 319 367 11,000 -942 Descending New York Center
Fri 05:17:50 PM 41.1144 -75.9072 152° Southeast 319 367 10,000 -504 Descending New York Center
Fri 05:18:49 PM 41.0297 -75.8458 151° Southeast 319 367 10,000  Level New York Center
Fri 05:19:50 PM 40.9569 -75.7936 152° Southeast 313 360 10,000  Level New York Center
Fri 05:20:51 PM 40.8922 -75.7478 152° Southeast 299 344 10,000  Level New York Center
Fri 05:21:51 PM 40.8194 -75.6958 152° Southeast 299 344 10,000  Level New York Center
Fri 05:22:49 PM 40.7383 -75.6378 152° Southeast 299 344 10,000  Level New York Center
Fri 05:23:50 PM 40.6633 -75.5861 152° Southeast 299 344 10,000  Level New York Center
Fri 05:24:50 PM 40.5967 -75.5350 150° Southeast 299 344 10,000  Level New York Center
Fri 05:25:49 PM 40.5114 -75.4772 153° Southeast 299 344 10,000  Level New York Center
Fri 05:26:49 PM 40.4364 -75.4256 152° Southeast 299 344 10,000 -246 Level New York Center
Fri 05:27:51 PM 40.3592 -75.3794 156° South 299 344 9,500 -738 Descending New York Center
Fri 05:28:51 PM 40.2919 -75.3397 156° South 299 344 8,500 -1,008 Descending New York Center
Fri 05:29:50 PM 40.2183 -75.2994 157° South 288 331 7,500 -1,008 Descending New York Center
Fri 05:30:50 PM 40.1428 -75.2592 158° South 294 338 6,500 -744 Descending New York Center
Fri 05:31:51 PM 40.0694 -75.2167 156° South 277 319 6,000 -227 Descending New York Center
Fri 05:33:02 PM 40.0333 -75.1333 119° Southeast 218 251 6,000 -550 Level Philadelphia TRACON
Fri 05:34:02 PM 40.0000 -75.0667 123° Southeast 228 262 4,800 -1,000 Descending Philadelphia TRACON
Fri 05:35:02 PM 39.9500 -75.0167 143° Southeast 202 232 4,000 -800 Descending Philadelphia TRACON

Login

Don't have an account? Register now (free) for customized features, flight alerts, and more!